Terminal Aerodrome Forecast
Issued by NWS Wakefield, VA

Home | Current Version | Previous Version | Text Only | Print | Product List | Glossary On
Versions: 1 2 3 4 5 6 7 8 9 10 11 12 13 14 15 16 17
000
FTUS41 KAKQ 181100
TAFSBY
TAF
KSBY 181125Z 1812/1912 03006KT P6SM OVC020
     FM181500 05008KT P6SM BKN025
     FM190000 09003KT P6SM SCT025 BKN150
     FM190900 05002KT P6SM BKN100=

USA.gov is the U.S. government's official web portal to all federal, state and local government web resources and services.